createdAt,value
2022-12-18T00:04:27.678Z,23.30
2022-12-18T00:09:31.169Z,23.20
2022-12-18T00:14:46.429Z,23.10
2022-12-18T00:19:49.263Z,23.00
2022-12-18T00:24:52.157Z,22.90
2022-12-18T00:29:56.331Z,22.80
2022-12-18T00:34:59.118Z,22.70
2022-12-18T00:40:01.931Z,22.60
2022-12-18T00:45:12.301Z,22.60
2022-12-18T00:50:15.884Z,22.40
2022-12-18T00:55:19.131Z,22.30
2022-12-18T01:00:23.641Z,22.30
2022-12-18T01:05:26.761Z,22.20
2022-12-18T01:10:29.581Z,22.10
2022-12-18T01:15:33.749Z,22.10
2022-12-18T01:20:36.592Z,22.00
2022-12-18T01:25:40.124Z,22.00
2022-12-18T01:30:44.365Z,21.80
2022-12-18T01:35:47.159Z,21.80
2022-12-18T01:40:50.082Z,21.70
2022-12-18T01:45:54.337Z,21.70
2022-12-18T01:50:57.274Z,21.60
2022-12-18T01:56:01.253Z,21.50
2022-12-18T02:01:05.491Z,21.50
2022-12-18T02:06:17.833Z,21.40
2022-12-18T02:11:30.615Z,21.30
2022-12-18T02:16:44.618Z,21.30
2022-12-18T02:21:53.875Z,21.20
2022-12-18T02:27:00.646Z,21.10
2022-12-18T02:32:06.474Z,21.10
2022-12-18T02:37:14.348Z,21.10
2022-12-18T02:42:19.659Z,21.00
2022-12-18T02:47:25.046Z,21.00
2022-12-18T02:52:35.504Z,20.90
2022-12-18T02:57:47.464Z,20.90
2022-12-18T03:02:57.221Z,20.80
2022-12-18T03:08:05.082Z,20.70
2022-12-18T03:13:14.166Z,20.70
2022-12-18T03:18:22.357Z,20.70
2022-12-18T03:23:29.852Z,20.60
2022-12-18T03:28:37.852Z,20.60
2022-12-18T03:33:43.727Z,20.50
2022-12-18T03:38:46.772Z,20.50
2022-12-18T03:43:56.879Z,20.50
2022-12-18T03:49:07.745Z,20.40
2022-12-18T03:54:11.962Z,20.40
2022-12-18T03:59:18.663Z,20.40
2022-12-18T04:04:23.588Z,20.30
2022-12-18T04:09:27.720Z,20.30
2022-12-18T04:14:36.422Z,20.30
2022-12-18T04:19:39.215Z,20.20
2022-12-18T04:24:42.119Z,20.20
2022-12-18T04:29:46.372Z,20.10
2022-12-18T04:34:49.188Z,20.10
2022-12-18T04:39:52.000Z,20.10
2022-12-18T04:44:56.176Z,20.10
2022-12-18T04:49:58.955Z,20.00
2022-12-18T04:55:01.788Z,20.00
2022-12-18T05:00:07.251Z,20.00
2022-12-18T05:05:10.577Z,19.90
2022-12-18T05:10:13.458Z,19.90
2022-12-18T05:15:17.734Z,19.90
2022-12-18T05:20:20.906Z,19.80
2022-12-18T05:25:24.077Z,19.80
2022-12-18T05:30:29.472Z,19.80
2022-12-18T05:35:32.251Z,19.70
2022-12-18T05:40:35.080Z,19.70
2022-12-18T05:45:40.977Z,19.70
2022-12-18T05:50:46.441Z,19.70
2022-12-18T05:55:49.749Z,19.70
2022-12-18T06:00:53.866Z,19.60
2022-12-18T06:05:56.653Z,19.60
2022-12-18T06:10:59.495Z,19.60
2022-12-18T06:16:05.704Z,19.60
2022-12-18T06:21:08.591Z,19.70
2022-12-18T06:26:14.224Z,19.70
2022-12-18T06:31:18.472Z,19.60
2022-12-18T06:36:21.944Z,19.60
2022-12-18T06:41:25.224Z,19.50
2022-12-18T06:46:29.430Z,19.50
2022-12-18T06:51:32.258Z,19.40
2022-12-18T06:56:35.089Z,19.40
2022-12-18T07:01:39.411Z,19.40
2022-12-18T07:06:42.398Z,19.40
2022-12-18T07:11:45.245Z,19.40
2022-12-18T07:16:49.534Z,19.40
2022-12-18T07:21:52.770Z,19.40
2022-12-18T07:26:55.686Z,19.40
2022-12-18T07:31:59.900Z,19.30
2022-12-18T07:37:03.040Z,19.30
2022-12-18T07:42:23.432Z,19.30
2022-12-18T07:47:29.128Z,19.30
2022-12-18T07:52:32.808Z,19.30
2022-12-18T07:57:55.204Z,19.30
2022-12-18T08:03:00.381Z,19.30
2022-12-18T08:08:03.201Z,19.40
2022-12-18T08:13:05.990Z,19.40
2022-12-18T08:18:14.082Z,19.40
2022-12-18T08:23:17.327Z,19.50
2022-12-18T08:28:20.141Z,19.60
2022-12-18T08:33:24.461Z,19.60
2022-12-18T08:38:27.319Z,19.70
2022-12-18T08:43:48.051Z,19.90
2022-12-18T08:48:53.277Z,20.10
2022-12-18T08:53:56.114Z,20.30
2022-12-18T08:58:59.339Z,20.40
2022-12-18T09:04:03.999Z,20.40
2022-12-18T09:09:07.501Z,20.50
2022-12-18T09:14:11.585Z,20.50
2022-12-18T09:19:15.830Z,20.60
2022-12-18T09:24:19.676Z,20.80
2022-12-18T09:29:22.541Z,20.90
2022-12-18T09:34:26.726Z,21.00
2022-12-18T09:39:29.573Z,21.10
2022-12-18T09:44:44.745Z,21.20
2022-12-18T09:49:53.068Z,21.20
2022-12-18T09:55:00.534Z,21.20
2022-12-18T10:00:10.827Z,21.20
2022-12-18T10:05:18.357Z,21.30
2022-12-18T10:10:31.118Z,21.30
2022-12-18T10:15:41.919Z,21.20
2022-12-18T10:20:50.213Z,21.30
2022-12-18T10:25:57.418Z,21.50
2022-12-18T10:31:01.799Z,21.70
2022-12-18T10:36:07.262Z,22.10
2022-12-18T10:41:27.722Z,22.30
2022-12-18T10:46:32.478Z,22.80
2022-12-18T10:51:39.361Z,23.20
2022-12-18T10:56:42.654Z,23.50
2022-12-18T11:01:52.808Z,23.70
2022-12-18T11:07:01.796Z,23.90
2022-12-18T11:12:08.161Z,24.00
2022-12-18T11:17:25.888Z,24.00
2022-12-18T11:22:32.555Z,24.10
2022-12-18T11:27:35.598Z,24.20
2022-12-18T11:32:41.311Z,24.30
2022-12-18T11:37:51.281Z,24.40
2022-12-18T11:43:00.277Z,24.50
2022-12-18T11:48:06.766Z,24.50
2022-12-18T11:53:14.390Z,24.60
2022-12-18T11:58:31.276Z,24.60
2022-12-18T12:04:17.671Z,24.50
2022-12-18T12:09:29.338Z,24.50
2022-12-18T12:14:49.127Z,24.50
2022-12-18T12:20:00.654Z,24.50
2022-12-18T12:25:17.515Z,24.60
2022-12-18T12:30:23.610Z,24.60
2022-12-18T12:35:38.017Z,24.60
2022-12-18T12:40:55.176Z,24.60
2022-12-18T12:46:05.092Z,24.60
2022-12-18T12:51:15.591Z,24.70
2022-12-18T12:56:22.214Z,24.70
2022-12-18T13:01:33.175Z,24.70
2022-12-18T13:06:45.134Z,24.60
2022-12-18T13:12:08.405Z,24.60
2022-12-18T13:17:35.737Z,24.50
2022-12-18T13:22:42.404Z,24.40
2022-12-18T13:28:01.689Z,24.40
2022-12-18T13:39:35.772Z,24.30
2022-12-18T13:44:42.733Z,24.20
2022-12-18T13:49:46.468Z,24.20
2022-12-18T13:54:54.229Z,24.20
2022-12-18T14:00:00.501Z,24.10
2022-12-18T14:05:03.462Z,24.00
2022-12-18T14:15:44.469Z,23.90
2022-12-18T14:20:53.000Z,23.90
2022-12-18T14:25:59.609Z,24.00
2022-12-18T14:31:06.466Z,24.00
2022-12-18T14:36:18.583Z,23.90
2022-12-18T14:41:22.663Z,23.80
2022-12-18T14:46:34.629Z,23.80
2022-12-18T14:51:38.656Z,23.70
2022-12-18T14:56:47.326Z,23.60
2022-12-18T15:02:04.298Z,23.50
2022-12-18T15:07:16.943Z,23.40
2022-12-18T15:12:30.060Z,23.40
2022-12-18T15:17:34.502Z,23.50
2022-12-18T15:22:38.340Z,23.60
2022-12-18T15:27:47.752Z,23.50
2022-12-18T15:32:52.677Z,23.40
2022-12-18T15:37:55.475Z,23.40
2022-12-18T15:43:15.874Z,23.40
2022-12-18T15:48:24.058Z,23.40
2022-12-18T15:53:29.821Z,23.40
2022-12-18T15:58:33.709Z,23.50
2022-12-18T16:03:38.140Z,23.60
2022-12-18T16:08:41.291Z,23.60
2022-12-18T16:13:44.574Z,23.50
2022-12-18T16:18:48.739Z,23.40
2022-12-18T16:23:51.908Z,23.30
2022-12-18T16:28:54.790Z,23.30
2022-12-18T16:34:15.436Z,23.20
2022-12-18T16:39:18.376Z,23.10
2022-12-18T16:44:21.690Z,23.20
2022-12-18T16:49:25.808Z,23.20
2022-12-18T16:54:30.364Z,23.30
2022-12-18T16:59:36.262Z,23.20
2022-12-18T17:04:40.752Z,23.10
2022-12-18T17:09:43.933Z,23.10
2022-12-18T17:14:46.773Z,23.00
2022-12-18T17:19:51.771Z,22.90
2022-12-18T17:24:54.662Z,22.80
2022-12-18T17:29:57.462Z,22.70
2022-12-18T17:35:06.960Z,22.70
2022-12-18T17:40:11.317Z,22.80
2022-12-18T17:45:14.164Z,22.80
2022-12-18T17:50:18.471Z,22.80
2022-12-18T17:55:21.699Z,22.80
2022-12-18T18:00:24.555Z,22.80
2022-12-18T18:05:28.837Z,22.80
2022-12-18T18:10:33.151Z,22.70
2022-12-18T18:15:41.035Z,22.60
2022-12-18T18:20:45.230Z,22.50
2022-12-18T18:25:55.374Z,22.50
2022-12-18T18:30:58.498Z,22.60
2022-12-18T18:36:03.083Z,22.60
2022-12-18T18:41:06.818Z,22.60
2022-12-18T18:46:13.586Z,22.60
2022-12-18T18:51:21.244Z,22.50
2022-12-18T19:01:52.770Z,22.50
2022-12-18T19:06:57.185Z,22.40
2022-12-18T19:12:17.444Z,22.40
2022-12-18T19:17:23.697Z,22.30
2022-12-18T19:22:32.143Z,22.40
2022-12-18T19:27:38.436Z,22.30
2022-12-18T19:32:41.800Z,22.30
2022-12-18T19:37:46.000Z,22.20
2022-12-18T19:42:48.852Z,22.20
2022-12-18T19:47:51.723Z,22.20
2022-12-18T19:52:55.949Z,22.20
2022-12-18T19:57:59.060Z,22.30
2022-12-18T20:03:09.857Z,22.30
2022-12-18T20:08:20.463Z,22.30
2022-12-18T20:13:23.258Z,22.30
2022-12-18T20:18:26.378Z,22.20
2022-12-18T20:23:30.591Z,22.20
2022-12-18T20:28:35.639Z,22.10
2022-12-18T20:33:39.398Z,22.00
2022-12-18T20:38:44.453Z,22.00
2022-12-18T20:43:48.526Z,22.10
2022-12-18T20:48:51.421Z,22.20
2022-12-18T20:53:56.329Z,22.20
2022-12-18T20:59:00.366Z,22.20
2022-12-18T21:04:03.147Z,22.20
2022-12-18T21:09:07.433Z,22.20
2022-12-18T21:14:12.714Z,22.10
2022-12-18T21:19:17.922Z,22.10
2022-12-18T21:24:22.548Z,22.00
2022-12-18T21:29:27.209Z,22.00
2022-12-18T21:34:31.632Z,22.00
2022-12-18T21:39:35.832Z,22.10
2022-12-18T21:44:42.281Z,22.10
2022-12-18T21:49:45.419Z,22.10
2022-12-18T21:54:49.601Z,22.00
2022-12-18T21:59:52.399Z,22.00
2022-12-18T22:04:55.174Z,22.00
2022-12-18T22:09:59.764Z,21.90
2022-12-18T22:15:05.949Z,21.90
2022-12-18T22:20:10.636Z,21.90
2022-12-18T22:25:14.909Z,22.00
2022-12-18T22:30:17.727Z,22.00
2022-12-18T22:35:20.571Z,22.00
2022-12-18T22:40:32.144Z,21.90
2022-12-18T22:45:38.522Z,21.80
2022-12-18T22:50:41.858Z,21.80
2022-12-18T22:55:46.058Z,21.70
2022-12-18T23:00:48.829Z,21.60
2022-12-18T23:05:51.669Z,21.50
2022-12-18T23:10:57.600Z,21.50
2022-12-18T23:16:00.536Z,21.40
2022-12-18T23:21:07.694Z,21.30
2022-12-18T23:26:14.968Z,21.30
2022-12-18T23:31:21.070Z,21.20
2022-12-18T23:36:24.033Z,21.20
2022-12-18T23:41:30.016Z,21.20
2022-12-18T23:46:34.296Z,21.20
2022-12-18T23:51:40.204Z,21.20
2022-12-18T23:56:44.467Z,21.10
